Terminal Aerodrome Forecast
Issued by NWS

Home | Current Version | Previous Version | Graphics & Text | Print | Product List | Glossary On
Versions: 1 2 3 4 5 6 7 8 9 10 11 12 13 14 15 16 17 18 19 20
000
FTUS43 KGRB 282000 AAA
TAFCWA
TAF AMD
KCWA 282046Z 2821/2918 15012KT P6SM SCT015 OVC130
     FM290300 13004KT 5SM BR SCT006 OVC012
      TEMPO 2904/2908 2SM -FZDZSN BR OVC006
     FM290800 30005KT 3SM -SN BR OVC006
     FM291200 31011KT 5SM -FZDZSN BR OVC009
     FM291500 31015G22KT P6SM OVC015=

USA.gov is the U.S. government's official web portal to all federal, state and local government web resources and services.